Time;durP1;ratioP1;P1;durP2;ratioP2;P2;SDS_P1;SDS_P2;PMS_P1;PMS_P2;Temp;Humidity;BMP_temperature;BMP_pressure;BME280_temperature;BME280_humidity;BME280_pressure;Samples;Min_cycle;Max_cycle;Signal;HPM_P1;HPM_P2
2022/04/27 00:01:12;;;;;;;;;10.50;9.25;;;;;9.87;73.81;100484.94;5096653;28;8839;-63
2022/04/27 00:06:49;;;;;;;;;12.75;11.00;;;;;9.82;73.71;100488.84;5097020;28;8764;-63
2022/04/27 00:09:16;;;;;;;;;10.25;8.25;;;;;9.80;74.28;100490.78;5096190;28;8866;-62
2022/04/27 00:11:44;;;;;;;;;11.20;10.00;;;;;9.77;74.33;100488.31;5096288;28;8823;-62
2022/04/27 00:14:12;;;;;;;;;9.20;9.00;;;;;9.75;73.45;100488.44;5096545;28;8836;-63
2022/04/27 00:16:40;;;;;;;;;12.20;11.60;;;;;9.73;74.03;100492.16;5096373;28;8853;-65
2022/04/27 00:19:07;;;;;;;;;14.00;11.75;;;;;9.71;74.27;100494.91;5096669;28;8835;-62
2022/04/27 00:21:35;;;;;;;;;12.00;9.80;;;;;9.70;73.49;100495.00;5095389;28;8847;-63
2022/04/27 00:24:03;;;;;;;;;9.00;8.00;;;;;9.69;74.01;100498.63;5094502;28;8843;-64
2022/04/27 00:26:31;;;;;;;;;8.50;8.00;;;;;9.68;73.83;100497.78;5094340;28;8851;-62
2022/04/27 00:28:58;;;;;;;;;11.50;9.75;;;;;9.66;73.42;100493.50;5094370;28;8973;-63
2022/04/27 00:31:26;;;;;;;;;12.25;12.25;;;;;9.65;73.99;100495.31;5094865;28;8828;-64
2022/04/27 00:33:54;;;;;;;;;5.25;5.00;;;;;9.62;74.02;100492.88;5095793;28;9486;-62
2022/04/27 00:52:05;;;;;;;;;7.50;7.50;;;;;9.56;74.01;100498.59;5093224;28;8869;-63
2022/04/27 00:54:32;;;;;;;;;10.75;9.75;;;;;9.54;74.21;100484.56;5092804;28;8839;-63
2022/04/27 00:57:01;;;;;;;;;8.00;7.50;;;;;9.56;73.23;100492.44;5093071;28;9296;-64
2022/04/27 00:59:28;;;;;;;;;6.00;6.00;;;;;9.54;73.85;100489.88;5094025;28;8840;-62
2022/04/27 01:01:56;;;;;;;;;8.50;7.00;;;;;9.52;73.90;100497.09;5093520;28;8959;-65
2022/04/27 01:04:24;;;;;;;;;7.50;7.00;;;;;9.49;73.77;100497.28;5094156;28;8823;-64
2022/04/27 01:06:52;;;;;;;;;10.00;9.25;;;;;9.46;73.68;100497.50;5095694;28;8857;-62
2022/04/27 01:09:19;;;;;;;;;11.50;11.50;;;;;9.45;73.79;100508.22;5096025;28;8851;-63
2022/04/27 01:11:47;;;;;;;;;12.80;12.00;;;;;9.43;74.10;100504.81;5093823;28;8841;-63
2022/04/27 01:14:15;;;;;;;;;6.75;6.00;;;;;9.41;73.52;100510.22;5094565;28;8839;-62
2022/04/27 01:16:43;;;;;;;;;13.00;12.00;;;;;9.39;73.81;100504.19;5095532;28;9548;-63
2022/04/27 01:19:11;;;;;;;;;11.60;9.20;;;;;9.39;73.76;100508.63;5095283;28;8827;-64
2022/04/27 01:21:39;;;;;;;;;6.00;4.60;;;;;9.41;73.96;100510.22;5094817;28;8874;-63
2022/04/27 01:24:07;;;;;;;;;7.00;7.00;;;;;9.41;73.81;100504.09;5095487;28;8842;-62
2022/04/27 01:26:35;;;;;;;;;9.80;7.40;;;;;9.39;73.20;100506.84;5095150;28;9555;-61
2022/04/27 01:29:03;;;;;;;;;10.40;9.60;;;;;9.37;73.89;100508.75;5095437;28;8855;-63
2022/04/27 01:31:30;;;;;;;;;13.00;12.20;;;;;9.36;73.63;100522.13;5095095;28;8929;-61
2022/04/27 01:33:58;;;;;;;;;8.50;7.00;;;;;9.35;73.98;100520.44;5095409;28;9617;-62
2022/04/27 01:36:26;;;;;;;;;9.20;7.40;;;;;9.33;73.83;100525.00;5095464;28;8827;-62
2022/04/27 01:38:55;;;;;;;;;12.60;11.20;;;;;9.32;73.52;100521.47;5094178;28;8832;-62
2022/04/27 01:41:23;;;;;;;;;9.20;9.00;;;;;9.31;73.43;100522.44;5094871;28;8863;-63
2022/04/27 01:43:50;;;;;;;;;9.40;8.60;;;;;9.32;73.81;100524.13;5095219;28;8831;-63
2022/04/27 01:46:18;;;;;;;;;8.80;8.80;;;;;9.31;73.97;100514.47;5095411;28;8862;-63
2022/04/27 01:48:46;;;;;;;;;10.00;9.60;;;;;9.31;73.75;100526.88;5095406;28;8824;-62
2022/04/27 01:51:14;;;;;;;;;12.20;11.20;;;;;9.31;73.88;100527.75;5094590;28;8893;-63
2022/04/27 01:56:41;;;;;;;;;10.60;7.80;;;;;9.33;73.79;100533.81;5013006;28;8956;-62
2022/04/27 01:59:09;;;;;;;;;9.40;7.00;;;;;9.34;73.48;100532.00;5012900;28;8880;-63
2022/04/27 02:01:36;;;;;;;;;7.40;7.00;;;;;9.33;73.60;100539.13;5049807;28;8840;-63
2022/04/27 02:04:04;;;;;;;;;8.50;7.00;;;;;9.28;74.07;100538.56;5095034;28;8823;-62
2022/04/27 02:06:35;;;;;;;;;9.20;8.60;;;;;9.25;73.79;100544.09;5098289;28;8912;-64
2022/04/27 02:09:03;;;;;;;;;4.80;4.80;;;;;9.21;73.94;100542.59;5099197;28;9509;-62
2022/04/27 02:11:31;;;;;;;;;12.00;11.60;;;;;9.16;73.67;100536.72;5097903;28;8832;-63
2022/04/27 02:13:59;;;;;;;;;10.00;9.80;;;;;9.16;73.56;100547.34;5099244;28;8834;-62
2022/04/27 02:16:26;;;;;;;;;12.00;9.60;;;;;9.17;73.62;100542.84;5098655;28;8827;-62
2022/04/27 02:18:55;;;;;;;;;12.20;10.20;;;;;9.16;74.39;100547.34;5098636;28;8835;-62
2022/04/27 02:21:23;;;;;;;;;10.00;8.20;;;;;9.15;74.13;100545.63;5098355;28;8840;-62
2022/04/27 02:23:50;;;;;;;;;11.40;11.40;;;;;9.13;74.47;100552.00;5098893;28;8831;-62
2022/04/27 02:26:18;;;;;;;;;7.00;7.00;;;;;9.12;74.09;100547.63;5098829;28;8845;-62
2022/04/27 02:28:46;;;;;;;;;7.00;4.40;;;;;9.09;73.85;100553.13;5098564;28;8875;-62
2022/04/27 02:31:14;;;;;;;;;9.60;9.00;;;;;9.08;73.87;100554.94;5098269;28;8823;-62
2022/04/27 02:33:42;;;;;;;;;9.00;9.00;;;;;9.09;74.13;100555.78;5098765;28;8820;-62
2022/04/27 02:36:09;;;;;;;;;5.60;4.00;;;;;9.10;73.91;100558.34;5098496;28;8855;-62
2022/04/27 02:38:37;;;;;;;;;12.40;10.40;;;;;9.08;74.47;100554.06;5098327;28;8836;-63
2022/04/27 02:41:05;;;;;;;;;7.80;5.60;;;;;9.08;74.12;100560.25;5097815;28;8839;-63
2022/04/27 02:43:33;;;;;;;;;11.20;10.00;;;;;9.05;73.98;100556.94;5098432;28;8869;-63
2022/04/27 02:46:00;;;;;;;;;7.40;7.40;;;;;9.00;74.02;100565.22;5098421;28;8851;-63
2022/04/27 02:48:28;;;;;;;;;10.00;9.40;;;;;8.95;73.99;100556.66;5098510;28;8836;-63
2022/04/27 02:53:41;;;;;;;;;12.80;10.40;;;;;8.86;74.49;100575.84;5098036;28;9501;-64
2022/04/27 02:56:10;;;;;;;;;11.20;10.00;;;;;8.81;74.27;100566.47;5097444;28;8966;-63
2022/04/27 02:58:38;;;;;;;;;9.40;9.20;;;;;8.77;74.42;100581.72;5098096;28;8954;-62
2022/04/27 03:01:05;;;;;;;;;10.60;9.80;;;;;8.75;74.62;100583.59;5097672;28;8831;-62
2022/04/27 03:03:33;;;;;;;;;9.20;9.00;;;;;8.73;74.31;100579.38;5098171;28;8839;-62
2022/04/27 03:06:01;;;;;;;;;9.20;9.00;;;;;8.70;74.62;100580.41;5097906;28;8811;-64
2022/04/27 03:08:29;;;;;;;;;10.00;10.00;;;;;8.66;74.68;100584.19;5094995;28;8828;-62
2022/04/27 03:10:56;;;;;;;;;12.00;10.40;;;;;8.64;74.66;100591.38;5094807;28;8836;-63
2022/04/27 03:13:24;;;;;;;;;5.60;3.60;;;;;8.60;74.32;100587.19;5094959;28;8823;-62
2022/04/27 03:15:52;;;;;;;;;9.60;8.00;;;;;8.58;74.72;100585.63;5094767;28;8843;-62
2022/04/27 03:18:20;;;;;;;;;7.00;7.00;;;;;8.56;75.12;100590.13;5093996;28;8848;-61
2022/04/27 03:20:49;;;;;;;;;15.00;12.00;;;;;8.57;74.67;100589.19;5094141;28;8852;-63
2022/04/27 03:23:17;;;;;;;;;12.80;11.80;;;;;8.54;74.84;100590.25;5096228;28;8835;-62
2022/04/27 03:25:44;;;;;;;;;10.40;10.00;;;;;8.57;74.62;100600.69;5097945;28;8811;-62
2022/04/27 03:28:12;;;;;;;;;11.60;9.60;;;;;8.59;74.81;100595.28;5097732;28;8836;-62
2022/04/27 03:30:40;;;;;;;;;7.80;7.40;;;;;8.61;74.27;100590.72;5097272;28;8823;-63
2022/04/27 03:33:07;;;;;;;;;9.60;8.60;;;;;8.62;74.70;100598.59;5097515;28;8900;-63
2022/04/27 03:35:36;;;;;;;;;9.40;8.60;;;;;8.62;74.64;100595.06;5097025;28;8850;-62
2022/04/27 03:38:04;;;;;;;;;10.80;10.00;;;;;8.60;74.78;100597.81;5097289;28;8855;-63
2022/04/27 03:40:31;;;;;;;;;10.80;9.40;;;;;8.58;74.18;100602.38;5096971;28;8854;-62
2022/04/27 03:42:59;;;;;;;;;9.00;8.60;;;;;8.55;74.54;100601.72;5097022;28;8857;-63
2022/04/27 03:45:27;;;;;;;;;6.40;6.40;;;;;8.54;74.43;100602.66;5097359;28;8824;-62
2022/04/27 03:48:01;;;;;;;;;6.20;4.00;;;;;8.55;74.64;100607.00;5097278;28;8853;-62
2022/04/27 03:50:29;;;;;;;;;13.00;11.20;;;;;8.55;74.53;100607.00;5097358;28;8831;-62
2022/04/27 03:52:57;;;;;;;;;4.40;4.40;;;;;8.56;74.61;100620.19;5096510;28;8827;-62
2022/04/27 03:55:25;;;;;;;;;9.80;9.40;;;;;8.57;74.42;100613.06;5094618;28;8844;-62
2022/04/27 03:57:53;;;;;;;;;14.60;12.40;;;;;8.59;74.46;100614.69;5096060;28;8838;-62
2022/04/27 04:00:21;;;;;;;;;13.40;11.60;;;;;8.61;74.35;100620.78;5095808;28;8846;-62
2022/04/27 04:02:48;;;;;;;;;10.80;10.80;;;;;8.62;74.21;100619.84;5096267;28;8824;-63
2022/04/27 04:05:16;;;;;;;;;13.40;9.60;;;;;8.60;74.37;100619.06;5096685;28;8858;-63
2022/04/27 04:07:44;;;;;;;;;13.00;12.40;;;;;8.60;74.40;100626.19;5094196;28;8852;-62
2022/04/27 04:10:12;;;;;;;;;12.00;10.00;;;;;8.60;74.59;100618.22;5093686;28;8840;-62
2022/04/27 04:12:39;;;;;;;;;7.00;5.20;;;;;8.59;74.49;100617.34;5093847;28;8823;-62
2022/04/27 04:15:07;;;;;;;;;10.80;10.80;;;;;8.60;74.08;100621.72;5093614;28;8824;-62
2022/04/27 04:17:35;;;;;;;;;14.00;11.40;;;;;8.62;73.83;100622.50;5093065;28;8839;-62
2022/04/27 04:20:03;;;;;;;;;9.00;9.00;;;;;8.66;74.02;100628.47;5093551;28;8839;-62
2022/04/27 04:22:30;;;;;;;;;12.80;12.40;;;;;8.65;74.24;100630.25;5092898;28;8843;-64
2022/04/27 04:30:28;;;;;;;;;9.60;9.60;;;;;8.61;74.14;100635.84;5095955;28;8835;-62
2022/04/27 04:32:56;;;;;;;;;15.00;13.00;;;;;8.59;74.17;100640.41;5095592;28;8842;-62
2022/04/27 04:35:24;;;;;;;;;12.00;9.80;;;;;8.56;74.41;100641.44;5095770;28;8831;-63
2022/04/27 04:37:52;;;;;;;;;15.00;12.40;;;;;8.58;74.24;100649.31;5095941;28;9493;-62
2022/04/27 04:40:19;;;;;;;;;10.00;10.00;;;;;8.64;74.01;100654.22;5095386;28;8828;-62
2022/04/27 04:42:48;;;;;;;;;9.60;9.60;;;;;8.66;74.01;100653.19;5096055;28;8831;-63
2022/04/27 04:45:16;;;;;;;;;15.20;14.60;;;;;8.69;74.14;100662.78;5095151;28;8832;-62
2022/04/27 04:47:44;;;;;;;;;11.40;11.40;;;;;8.71;73.55;100664.41;5094313;28;9485;-61
2022/04/27 04:50:12;;;;;;;;;13.80;11.00;;;;;8.72;73.91;100666.09;5093642;28;8846;-63
2022/04/27 04:52:39;;;;;;;;;13.00;12.20;;;;;8.73;73.63;100670.47;5093423;28;8869;-63
2022/04/27 04:55:07;;;;;;;;;7.00;6.80;;;;;8.78;73.78;100675.50;5095934;28;9493;-62
2022/04/27 04:57:35;;;;;;;;;12.80;12.60;;;;;8.78;73.71;100673.72;5094674;28;9273;-63
2022/04/27 05:00:03;;;;;;;;;9.60;7.40;;;;;8.81;73.92;100680.66;5092339;28;8828;-63
2022/04/27 05:02:30;;;;;;;;;14.80;13.80;;;;;8.81;73.69;100681.47;5092089;28;8831;-62
2022/04/27 05:04:59;;;;;;;;;12.00;11.60;;;;;8.81;73.64;100684.13;5091849;28;8857;-63
2022/04/27 05:07:27;;;;;;;;;12.00;12.00;;;;;8.84;73.21;100680.44;5093103;28;9583;-62
2022/04/27 05:09:55;;;;;;;;;13.80;12.80;;;;;8.87;73.81;100683.78;5092304;28;8827;-62
2022/04/27 05:12:22;;;;;;;;;10.80;9.20;;;;;8.90;73.61;100691.53;5093043;28;8858;-63
2022/04/27 05:14:50;;;;;;;;;9.20;7.60;;;;;8.95;73.67;100702.75;5093107;28;8823;-62
2022/04/27 05:17:18;;;;;;;;;13.00;11.20;;;;;8.97;73.01;100703.50;5091836;28;8854;-62
2022/04/27 05:19:46;;;;;;;;;7.00;7.00;;;;;9.00;73.42;100705.13;5089101;28;8878;-62
2022/04/27 05:22:13;;;;;;;;;12.60;12.60;;;;;9.04;73.27;100709.31;5090523;28;8820;-62
2022/04/27 05:24:41;;;;;;;;;12.00;10.40;;;;;9.06;73.40;100707.41;5091584;28;8815;-63
2022/04/27 05:27:09;;;;;;;;;11.60;10.80;;;;;9.08;73.25;100706.38;5092531;28;8861;-63
2022/04/27 05:32:21;;;;;;;;;12.00;10.80;;;;;9.12;73.23;100713.19;5093323;28;8828;-63
2022/04/27 05:34:49;;;;;;;;;13.00;10.40;;;;;9.12;73.26;100721.16;5094198;28;8828;-63
2022/04/27 05:37:17;;;;;;;;;9.60;9.00;;;;;9.12;73.14;100721.16;5093884;28;8840;-63
2022/04/27 05:39:45;;;;;;;;;7.60;7.60;;;;;9.14;73.14;100723.72;5092934;28;8932;-62
2022/04/27 05:42:12;;;;;;;;;11.40;11.20;;;;;9.21;73.36;100727.72;5093176;28;8866;-62
2022/04/27 05:44:40;;;;;;;;;9.80;9.80;;;;;9.26;72.85;100718.50;5092981;28;8843;-62
2022/04/27 05:47:08;;;;;;;;;8.20;8.20;;;;;9.33;72.70;100721.66;5092119;28;8929;-62
2022/04/27 05:49:35;;;;;;;;;5.40;4.00;;;;;9.44;72.45;100736.00;5091949;28;8838;-62
2022/04/27 05:52:03;;;;;;;;;7.60;7.60;;;;;9.52;72.31;100730.19;5091553;28;8830;-62
2022/04/27 05:54:31;;;;;;;;;9.60;9.00;;;;;9.57;72.13;100739.56;5090782;28;8835;-62
2022/04/27 05:56:59;;;;;;;;;15.20;11.60;;;;;9.64;72.17;100740.06;5089186;28;9518;-62
2022/04/27 05:59:28;;;;;;;;;4.00;4.00;;;;;9.73;71.99;100739.47;5089013;28;8835;-63
2022/04/27 06:01:55;;;;;;;;;12.00;10.60;;;;;9.81;71.85;100730.03;5088381;28;8931;-63
2022/04/27 06:04:25;;;;;;;;;8.50;8.00;;;;;9.91;71.66;100731.19;5090157;28;8831;-62
2022/04/27 06:06:52;;;;;;;;;12.00;12.00;;;;;10.01;71.10;100732.28;5089541;28;8836;-62
2022/04/27 06:09:20;;;;;;;;;17.50;13.75;;;;;10.12;71.15;100735.16;5090540;28;8835;-63
2022/04/27 06:11:48;;;;;;;;;7.50;7.50;;;;;10.23;70.86;100732.63;5091572;28;8844;-62
2022/04/27 06:14:15;;;;;;;;;11.00;10.50;;;;;10.35;70.53;100736.28;5092149;28;8859;-63
2022/04/27 06:16:43;;;;;;;;;12.50;9.75;;;;;10.43;70.18;100737.50;5090913;28;8831;-63
2022/04/27 06:19:12;;;;;;;;;10.50;10.50;;;;;10.51;69.97;100732.53;5090534;28;9573;-62
2022/04/27 06:21:39;;;;;;;;;9.25;8.50;;;;;10.54;70.20;100734.97;5090245;28;8852;-62
2022/04/27 06:24:07;;;;;;;;;12.25;10.50;;;;;10.58;70.04;100731.16;5090790;28;9553;-62
2022/04/27 06:26:36;;;;;;;;;13.25;10.00;;;;;10.61;69.95;100724.78;5090186;28;8823;-62
2022/04/27 06:29:04;;;;;;;;;9.75;8.50;;;;;10.66;70.03;100739.47;5090198;28;8859;-62
2022/04/27 06:31:31;;;;;;;;;12.50;12.00;;;;;10.71;69.93;100740.00;5093079;28;8839;-62
2022/04/27 06:33:59;;;;;;;;;11.00;9.50;;;;;10.74;69.71;100736.28;5092318;28;8828;-62
2022/04/27 06:36:27;;;;;;;;;14.50;13.00;;;;;10.77;69.75;100739.59;5091351;28;8827;-63
2022/04/27 06:38:55;;;;;;;;;9.00;8.00;;;;;10.83;69.72;100741.84;5091630;28;8831;-63
2022/04/27 06:41:23;;;;;;;;;12.00;10.75;;;;;10.91;69.38;100744.00;5091749;28;8836;-63
2022/04/27 06:43:51;;;;;;;;;9.75;9.00;;;;;10.95;69.32;100750.81;5092027;28;8842;-61
2022/04/27 06:46:19;;;;;;;;;6.75;5.50;;;;;10.97;69.57;100747.09;5091456;28;8834;-62
2022/04/27 06:48:47;;;;;;;;;10.00;10.00;;;;;11.02;68.97;100750.31;5092019;28;8900;-62
2022/04/27 06:51:15;;;;;;;;;9.00;8.50;;;;;11.12;68.92;100750.50;5093124;28;8966;-63
2022/04/27 06:53:43;;;;;;;;;11.00;9.50;;;;;11.18;69.08;100758.09;5095915;28;8846;-63
2022/04/27 06:56:11;;;;;;;;;11.75;11.00;;;;;11.26;68.68;100761.94;5095602;28;8855;-62
2022/04/27 06:58:38;;;;;;;;;6.25;6.25;;;;;11.38;68.18;100758.41;5094768;28;8838;-62
2022/04/27 07:01:06;;;;;;;;;7.50;6.00;;;;;11.45;67.98;100761.50;5093759;28;8861;-62
2022/04/27 07:03:36;;;;;;;;;10.25;9.25;;;;;11.53;67.82;100754.66;5095438;28;8840;-62
2022/04/27 07:06:03;;;;;;;;;8.50;7.00;;;;;11.63;68.06;100763.78;5095374;28;8858;-62
2022/04/27 07:08:31;;;;;;;;;9.50;9.00;;;;;11.75;67.38;100759.38;5094412;28;8932;-62
2022/04/27 07:10:59;;;;;;;;;7.75;6.00;;;;;11.84;67.72;100772.06;5094687;28;8840;-62
2022/04/27 07:13:26;;;;;;;;;10.00;9.00;;;;;11.93;66.99;100764.25;5094407;28;8855;-62
2022/04/27 07:15:59;;;;;;;;;7.00;7.00;;;;;12.01;67.00;100762.72;5095754;28;8835;-62
2022/04/27 07:18:28;;;;;;;;;7.00;6.75;;;;;12.05;67.22;100766.03;5095462;28;8835;-62
2022/04/27 07:20:56;;;;;;;;;9.50;8.75;;;;;12.10;66.69;100766.56;5093800;28;8958;-63
2022/04/27 07:23:24;;;;;;;;;11.00;10.00;;;;;12.16;67.02;100763.44;5093942;28;9599;-62
2022/04/27 07:25:52;;;;;;;;;6.50;5.25;;;;;12.21;66.99;100770.16;5092782;28;8885;-63
2022/04/27 07:28:20;;;;;;;;;7.00;6.25;;;;;12.30;66.49;100771.31;5093311;28;8830;-63
2022/04/27 07:30:48;;;;;;;;;9.00;8.00;;;;;12.34;66.55;100778.09;5092946;28;8840;-63
2022/04/27 07:33:16;;;;;;;;;9.00;9.00;;;;;12.36;66.50;100774.38;5092751;28;8858;-63
2022/04/27 07:35:44;;;;;;;;;3.50;3.00;;;;;12.43;65.98;100777.41;5092352;28;9194;-63
2022/04/27 07:38:12;;;;;;;;;8.50;7.50;;;;;12.52;66.11;100769.59;5092018;28;8836;-64
2022/04/27 07:40:40;;;;;;;;;9.00;7.00;;;;;12.60;66.20;100772.53;5093168;28;8827;-63
2022/04/27 07:43:08;;;;;;;;;6.50;6.25;;;;;12.69;65.95;100768.34;5091236;28;8851;-62
2022/04/27 07:45:36;;;;;;;;;8.50;8.50;;;;;12.77;65.46;100777.47;5092157;28;9256;-63
2022/04/27 07:48:04;;;;;;;;;9.00;7.00;;;;;12.85;65.29;100782.25;5092800;28;8849;-63
2022/04/27 07:50:31;;;;;;;;;10.00;10.00;;;;;12.91;65.66;100776.44;5092007;28;8881;-63
2022/04/27 07:52:59;;;;;;;;;7.00;6.00;;;;;12.94;65.54;100778.88;5093089;28;8847;-63
2022/04/27 07:55:27;;;;;;;;;7.00;7.00;;;;;13.00;65.29;100783.78;5092533;28;8859;-62
2022/04/27 07:57:55;;;;;;;;;8.00;7.00;;;;;13.08;64.70;100778.72;5091961;28;8840;-63
2022/04/27 08:00:22;;;;;;;;;7.00;7.00;;;;;13.17;64.57;100783.34;5090481;28;8959;-63
2022/04/27 08:02:50;;;;;;;;;6.75;6.00;;;;;13.20;64.78;100783.13;5089454;28;8965;-63
2022/04/27 08:05:18;;;;;;;;;9.25;9.00;;;;;13.24;64.47;100784.56;5090837;28;8940;-63
2022/04/27 08:07:46;;;;;;;;;6.50;6.00;;;;;13.29;64.64;100787.75;5089990;28;8859;-63
2022/04/27 08:10:15;;;;;;;;;3.75;3.00;;;;;13.32;64.02;100787.50;5091454;28;8854;-62
2022/04/27 08:12:46;;;;;;;;;9.50;9.25;;;;;13.42;63.70;100785.81;5094537;28;8846;-66
2022/04/27 08:15:14;;;;;;;;;7.00;7.00;;;;;13.50;63.68;100786.06;5092829;28;9190;-63
2022/04/27 08:17:42;;;;;;;;;6.50;5.00;;;;;13.57;63.74;100784.63;5090978;28;8847;-63
2022/04/27 08:22:55;;;;;;;;;9.75;9.25;;;;;13.71;63.25;100795.09;5093022;28;8835;-63
2022/04/27 08:25:23;;;;;;;;;9.50;7.00;;;;;13.79;63.62;100798.88;5092131;28;8831;-63
2022/04/27 08:27:51;;;;;;;;;9.50;9.00;;;;;13.86;63.15;100804.59;5093303;28;8984;-63
2022/04/27 08:30:18;;;;;;;;;10.75;9.75;;;;;13.90;62.74;100798.03;5091868;28;8844;-64
2022/04/27 08:32:46;;;;;;;;;9.00;7.00;;;;;13.98;62.77;100799.09;5093299;28;8842;-63
2022/04/27 08:35:14;;;;;;;;;11.00;10.50;;;;;14.05;62.84;100794.97;5094065;28;8828;-62
2022/04/27 08:37:42;;;;;;;;;10.50;9.50;;;;;14.13;62.62;100800.56;5092263;28;8857;-63
2022/04/27 08:40:09;;;;;;;;;10.75;10.00;;;;;14.22;62.44;100799.88;5093553;28;8850;-63
2022/04/27 08:42:37;;;;;;;;;9.25;9.25;;;;;14.32;62.51;100805.31;5093838;28;8823;-63
2022/04/27 08:45:05;;;;;;;;;8.25;8.00;;;;;14.45;61.90;100803.34;5092289;28;8839;-63
2022/04/27 08:47:33;;;;;;;;;13.00;12.00;;;;;14.53;62.18;100800.88;5092136;28;8828;-63
2022/04/27 08:50:00;;;;;;;;;12.00;10.00;;;;;14.58;61.98;100809.41;5091682;28;8907;-63
2022/04/27 08:52:28;;;;;;;;;10.00;10.00;;;;;14.62;61.11;100802.81;5091199;28;8862;-63
2022/04/27 08:54:56;;;;;;;;;10.00;10.00;;;;;14.70;61.55;100811.06;5092673;28;8875;-63
2022/04/27 08:57:23;;;;;;;;;9.00;8.00;;;;;14.77;61.54;100806.91;5092514;28;8882;-63
2022/04/27 08:59:51;;;;;;;;;11.50;9.00;;;;;14.86;61.07;100800.78;5091957;28;8998;-63
2022/04/27 09:02:19;;;;;;;;;10.00;9.00;;;;;14.95;61.07;100802.69;5092912;28;8919;-63
2022/04/27 09:04:47;;;;;;;;;11.00;9.50;;;;;15.03;60.37;100801.06;5091324;28;8824;-64
2022/04/27 09:07:15;;;;;;;;;12.50;9.75;;;;;15.09;60.82;100802.41;5092490;28;9482;-63
2022/04/27 09:09:42;;;;;;;;;10.00;9.25;;;;;15.20;60.77;100805.00;5090551;28;8823;-63
2022/04/27 09:12:10;;;;;;;;;9.50;8.00;;;;;15.33;60.58;100803.84;5090024;28;8862;-63
2022/04/27 09:14:37;;;;;;;;;8.50;8.50;;;;;15.46;59.70;100803.69;5089914;28;8863;-63
2022/04/27 09:22:38;;;;;;;;;12.00;10.25;;;;;15.81;59.00;100809.50;5091216;28;8854;-63
2022/04/27 09:25:05;;;;;;;;;13.00;12.00;;;;;15.88;59.25;100805.31;5090356;28;8842;-63
2022/04/27 09:27:33;;;;;;;;;7.25;6.75;;;;;15.99;59.21;100807.94;5090183;28;9520;-62
2022/04/27 09:30:01;;;;;;;;;6.00;4.00;;;;;16.14;58.49;100809.25;5090184;28;8827;-63
2022/04/27 09:32:29;;;;;;;;;10.25;9.00;;;;;16.34;57.91;100804.63;5091242;28;8831;-63
2022/04/27 09:34:57;;;;;;;;;8.00;8.00;;;;;16.51;57.98;100811.22;5092915;28;8820;-63
2022/04/27 09:37:27;;;;;;;;;12.75;10.00;;;;;16.62;56.99;100803.06;5090936;28;8958;-64
2022/04/27 09:39:55;;;;;;;;;9.00;8.50;;;;;16.75;57.03;100809.00;5091223;28;8974;-63
2022/04/27 09:42:23;;;;;;;;;10.00;9.50;;;;;16.98;56.99;100808.59;5089434;28;8828;-63
2022/04/27 09:44:51;;;;;;;;;7.00;7.00;;;;;17.35;55.85;100801.47;5090074;28;8831;-62
2022/04/27 09:47:18;;;;;;;;;9.00;9.00;;;;;17.78;55.11;100812.59;5088819;28;9563;-63
2022/04/27 09:49:46;;;;;;;;;10.50;9.75;;;;;18.31;54.64;100805.63;5088390;28;9022;-63
2022/04/27 09:52:16;;;;;;;;;11.75;10.25;;;;;18.85;53.43;100800.16;5089974;28;8839;-63
2022/04/27 09:54:44;;;;;;;;;11.00;10.00;;;;;19.39;52.78;100800.00;5090655;28;8857;-63
2022/04/27 09:57:13;;;;;;;;;16.00;14.00;;;;;19.89;51.97;100792.06;5091896;28;8970;-63
2022/04/27 09:59:41;;;;;;;;;13.80;9.80;;;;;20.36;51.46;100788.75;5089782;28;8863;-63
2022/04/27 10:02:09;;;;;;;;;16.80;14.60;;;;;20.81;50.93;100791.94;5089754;28;8824;-63
2022/04/27 10:04:37;;;;;;;;;15.60;12.80;;;;;21.11;49.93;100804.88;5089147;28;8839;-63
2022/04/27 10:07:07;;;;;;;;;16.00;14.20;;;;;21.37;50.31;100792.84;5088993;28;8881;-64
2022/04/27 10:09:34;;;;;;;;;13.00;13.00;;;;;21.72;49.60;100788.94;5090390;28;8844;-63
2022/04/27 10:12:13;;;;;;;;;16.40;16.40;;;;;21.90;49.07;100787.72;5068553;28;8862;-61
2022/04/27 10:14:41;;;;;;;;;16.00;14.00;;;;;22.20;49.12;100795.06;5068769;28;8844;-61
2022/04/27 10:17:09;;;;;;;;;14.60;13.60;;;;;22.39;49.27;100789.22;5067266;28;8843;-61
2022/04/27 10:19:37;;;;;;;;;15.40;14.20;;;;;22.71;47.71;100785.53;5066506;28;8855;-63
2022/04/27 10:22:05;;;;;;;;;12.60;11.00;;;;;22.92;48.14;100772.97;5065938;28;8836;-62
2022/04/27 10:24:33;;;;;;;;;20.40;18.20;;;;;23.14;48.01;100774.84;5066423;28;8985;-62
2022/04/27 10:27:00;;;;;;;;;18.20;16.40;;;;;23.42;47.17;100772.41;5068135;28;9840;-63
2022/04/27 10:29:32;;;;;;;;;15.80;15.00;;;;;23.74;46.84;100774.84;5070423;28;8840;-62
2022/04/27 10:32:02;;;;;;;;;16.20;15.80;;;;;24.03;46.76;100777.59;5070652;28;8824;-62
2022/04/27 10:34:31;;;;;;;;;17.40;16.40;;;;;24.30;46.11;100779.66;5071958;28;8866;-63
2022/04/27 10:36:59;;;;;;;;;18.60;16.40;;;;;24.58;45.65;100784.22;5072592;28;8844;-62
2022/04/27 10:39:27;;;;;;;;;16.40;15.40;;;;;24.84;45.55;100772.78;5073286;28;8886;-64
2022/04/27 10:41:55;;;;;;;;;16.60;13.80;;;;;24.99;44.50;100776.31;5073453;28;9534;-63
2022/04/27 10:44:23;;;;;;;;;17.80;16.40;;;;;25.15;44.62;100770.59;5071621;28;8832;-62
2022/04/27 10:46:51;;;;;;;;;20.40;18.00;;;;;25.36;44.51;100778.81;5072055;28;8875;-63
2022/04/27 10:49:18;;;;;;;;;20.40;18.00;;;;;25.58;44.20;100781.31;5070861;28;8832;-62
2022/04/27 10:51:46;;;;;;;;;12.60;11.00;;;;;25.78;43.41;100779.56;5063665;28;8862;-63
2022/04/27 10:54:19;;;;;;;;;15.60;15.00;;;;;25.95;43.14;100783.72;5055221;28;9791;-62
2022/04/27 10:56:48;;;;;;;;;19.00;18.60;;;;;26.12;43.43;100785.09;5054883;28;8850;-62
2022/04/27 10:59:16;;;;;;;;;19.20;16.80;;;;;26.20;42.69;100784.91;5053450;28;8858;-63
2022/04/27 11:01:44;;;;;;;;;14.00;14.00;;;;;26.26;41.87;100779.47;5051801;28;8840;-62
2022/04/27 11:04:15;;;;;;;;;20.40;17.40;;;;;26.44;42.48;100788.00;5051038;28;8858;-63
2022/04/27 11:06:43;;;;;;;;;12.60;12.00;;;;;26.69;41.22;100786.44;5050768;28;8891;-63
2022/04/27 11:09:10;;;;;;;;;16.20;15.60;;;;;26.79;41.92;100784.13;5050029;28;8846;-62
2022/04/27 11:11:40;;;;;;;;;18.00;16.00;;;;;26.70;42.07;100787.28;5068739;28;8876;-63
2022/04/27 11:14:09;;;;;;;;;15.00;14.60;;;;;26.47;41.91;100783.97;5072165;28;8857;-63
2022/04/27 11:16:41;;;;;;;;;17.20;16.40;;;;;26.61;42.12;100783.88;5072034;28;8821;-63
2022/04/27 11:19:09;;;;;;;;;16.00;14.60;;;;;26.29;42.13;100789.16;5072225;28;8853;-62
2022/04/27 11:21:37;;;;;;;;;15.20;14.80;;;;;26.05;43.15;100792.41;5073181;28;8862;-63
2022/04/27 11:24:05;;;;;;;;;19.80;18.20;;;;;26.01;43.04;100796.56;5073955;28;8860;-63
2022/04/27 11:26:33;;;;;;;;;15.80;15.40;;;;;26.25;42.42;100793.38;5073858;28;9515;-63
2022/04/27 11:29:00;;;;;;;;;18.60;16.00;;;;;26.57;42.20;100787.22;5073620;28;8834;-63
2022/04/27 11:31:33;;;;;;;;;17.00;16.20;;;;;26.71;41.69;100789.78;5072435;28;8841;-63
2022/04/27 11:34:01;;;;;;;;;18.00;17.60;;;;;26.72;41.31;100786.00;5071788;28;8838;-63
2022/04/27 11:36:29;;;;;;;;;20.60;18.80;;;;;26.62;41.40;100793.75;5073235;28;8845;-63
2022/04/27 11:38:56;;;;;;;;;14.20;12.80;;;;;26.21;42.48;100798.38;5072273;28;8991;-62
2022/04/27 11:41:24;;;;;;;;;18.60;17.00;;;;;25.45;43.22;100796.72;5072878;28;8975;-63
2022/04/27 11:43:54;;;;;;;;;17.40;15.00;;;;;24.68;44.78;100794.84;5072901;28;9534;-63
2022/04/27 11:46:21;;;;;;;;;16.60;15.00;;;;;25.15;44.06;100792.41;5072164;28;8837;-62
2022/04/27 11:48:49;;;;;;;;;14.80;14.40;;;;;25.88;43.12;100788.28;5073280;28;8872;-63
2022/04/27 11:51:17;;;;;;;;;18.20;17.00;;;;;26.65;40.83;100781.59;5071166;28;8858;-63
2022/04/27 11:53:46;;;;;;;;;19.80;17.40;;;;;27.18;40.38;100781.53;5071742;28;8849;-63
2022/04/27 11:56:14;;;;;;;;;21.20;20.00;;;;;27.62;38.99;100773.53;5074277;28;8864;-63
2022/04/27 11:58:45;;;;;;;;;13.80;13.40;;;;;28.02;38.90;100774.38;5072135;28;8849;-63
2022/04/27 12:01:13;;;;;;;;;21.60;18.00;;;;;28.35;39.02;100773.25;5071460;28;8833;-63
2022/04/27 12:03:41;;;;;;;;;17.00;16.60;;;;;28.67;38.52;100780.50;5072219;28;8844;-63
2022/04/27 12:06:09;;;;;;;;;14.40;13.00;;;;;28.77;37.95;100778.13;5072553;28;8874;-63
2022/04/27 12:08:37;;;;;;;;;23.20;22.20;;;;;28.82;38.50;100775.56;5073333;28;8849;-63
2022/04/27 12:11:05;;;;;;;;;19.20;17.40;;;;;28.81;37.85;100776.63;5072839;28;8885;-63
2022/04/27 12:13:33;;;;;;;;;20.20;19.40;;;;;29.06;37.85;100774.81;5072889;28;9522;-63